Time;durP1;ratioP1;P1;durP2;ratioP2;P2;SDS_P1;SDS_P2;PMS_P1;PMS_P2;Temp;Humidity;BMP_temperature;BMP_pressure;BME280_temperature;BME280_humidity;BME280_pressure;Samples;Min_cycle;Max_cycle;Signal;HPM_P1;HPM_P2
2022/05/23 00:01:54;;;;;;;6.90;2.00;;;;;;;;;;5117424;27;20044;-85
2022/05/23 00:04:20;;;;;;;7.18;2.08;;;;;;;;;;5095011;28;20062;-79
2022/05/23 00:06:48;;;;;;;2.60;1.40;;;;;;;;;;5115454;27;20061;-84
2022/05/23 00:09:15;;;;;;;10.40;1.98;;;;;;;;;;5115488;28;20047;-85
2022/05/23 00:11:48;;;;;;;6.18;2.15;;;;;;;;;;5114208;28;20047;-85
2022/05/23 00:14:14;;;;;;;19.58;2.33;;;;;;;;;;5113201;28;20110;-79
2022/05/23 00:16:42;;;;;;;9.02;1.88;;;;;;;;;;5111657;28;20056;-81
2022/05/23 00:19:11;;;;;;;8.18;2.20;;;;;;;;;;5112239;28;20055;-80
2022/05/23 00:21:39;;;;;;;6.22;2.10;;;;;;;;;;5113151;28;20044;-84
2022/05/23 00:24:06;;;;;;;8.52;2.03;;;;;;;;;;5096094;28;20479;-85
2022/05/23 00:26:46;;;;;;;7.03;2.17;;;;;;;;;;5080305;27;20731;-86
2022/05/23 00:29:12;;;;;;;5.63;1.80;;;;;;;;;;5113336;27;20090;-84
2022/05/23 00:35:17;;;;;;;6.88;2.55;;;;;;;;;;5114480;28;20032;-82
2022/05/23 00:37:16;;;;;;;8.82;2.47;;;;;;;;;;5112818;27;20035;-83
2022/05/23 00:39:42;;;;;;;4.63;1.95;;;;;;;;;;5113269;28;20139;-83
2022/05/23 00:44:56;;;;;;;8.40;2.28;;;;;;;;;;5115392;28;20057;-84
2022/05/23 00:47:24;;;;;;;4.95;2.00;;;;;;;;;;5095978;28;20506;-78
2022/05/23 00:49:50;;;;;;;5.75;1.88;;;;;;;;;;5116515;28;20103;-81
2022/05/23 00:52:25;;;;;;;12.57;2.35;;;;;;;;;;5122599;27;20040;-80
2022/05/23 00:54:54;;;;;;;8.50;2.40;;;;;;;;;;5116361;28;20040;-85
2022/05/23 00:57:23;;;;;;;7.03;1.90;;;;;;;;;;5075237;28;20066;-80
2022/05/23 00:59:51;;;;;;;7.07;1.90;;;;;;;;;;5116600;28;20063;-83
2022/05/23 01:02:18;;;;;;;6.65;2.13;;;;;;;;;;5115858;27;20042;-82
2022/05/23 01:04:48;;;;;;;7.32;2.30;;;;;;;;;;5115057;28;20061;-86
2022/05/23 01:07:15;;;;;;;9.32;2.00;;;;;;;;;;5113316;28;20057;-83
2022/05/23 01:09:42;;;;;;;6.50;2.10;;;;;;;;;;5111418;28;20059;-83
2022/05/23 01:12:08;;;;;;;5.70;2.13;;;;;;;;;;5114050;28;20136;-83
2022/05/23 01:14:48;;;;;;;9.73;1.98;;;;;;;;;;5115282;28;20043;-84
2022/05/23 01:17:24;;;;;;;14.40;2.05;;;;;;;;;;5114671;28;20050;-79
2022/05/23 01:19:51;;;;;;;14.30;3.03;;;;;;;;;;5113902;28;20039;-82
2022/05/23 01:22:18;;;;;;;7.53;1.90;;;;;;;;;;5113549;28;20039;-83
2022/05/23 01:25:03;;;;;;;11.98;2.17;;;;;;;;;;5115570;28;20090;-86
2022/05/23 01:27:29;;;;;;;9.18;2.60;;;;;;;;;;5114391;28;20043;-82
2022/05/23 01:29:56;;;;;;;11.05;2.13;;;;;;;;;;5096949;28;20042;-84
2022/05/23 01:32:25;;;;;;;5.53;2.42;;;;;;;;;;5112718;28;20103;-82
2022/05/23 01:34:51;;;;;;;8.73;2.22;;;;;;;;;;5111105;28;20040;-85
2022/05/23 01:37:17;;;;;;;9.95;2.40;;;;;;;;;;5115391;28;20039;-81
2022/05/23 01:39:46;;;;;;;4.85;2.05;;;;;;;;;;5093154;28;20028;-85
2022/05/23 01:42:13;;;;;;;5.70;2.40;;;;;;;;;;5112316;28;20054;-84
2022/05/23 01:44:39;;;;;;;8.43;2.15;;;;;;;;;;5114610;28;20118;-82
2022/05/23 01:47:09;;;;;;;7.15;2.20;;;;;;;;;;5115418;28;20050;-83
2022/05/23 01:49:35;;;;;;;11.23;2.50;;;;;;;;;;5114914;28;20047;-81
2022/05/23 01:52:02;;;;;;;7.07;2.13;;;;;;;;;;5108805;28;20047;-82
2022/05/23 01:54:28;;;;;;;11.25;2.40;;;;;;;;;;5112189;28;20526;-84
2022/05/23 01:56:54;;;;;;;8.93;2.95;;;;;;;;;;5095707;28;20028;-82
2022/05/23 02:02:09;;;;;;;10.88;2.40;;;;;;;;;;5115751;28;20036;-84
2022/05/23 02:04:36;;;;;;;7.03;2.55;;;;;;;;;;5118000;27;20042;-83
2022/05/23 02:07:02;;;;;;;6.45;2.35;;;;;;;;;;5123784;27;20135;-80
2022/05/23 02:09:29;;;;;;;9.50;2.53;;;;;;;;;;5116216;27;20039;-80
2022/05/23 02:11:56;;;;;;;4.80;2.38;;;;;;;;;;5113713;28;20052;-85
2022/05/23 02:14:22;;;;;;;9.05;2.70;;;;;;;;;;5117284;27;20051;-78
2022/05/23 02:16:54;;;;;;;12.48;3.00;;;;;;;;;;5115232;27;20027;-79
2022/05/23 02:19:20;;;;;;;7.53;2.13;;;;;;;;;;5114851;27;20043;-80
2022/05/23 02:21:53;;;;;;;5.15;2.60;;;;;;;;;;5111617;28;20043;-79
2022/05/23 02:24:19;;;;;;;6.30;2.13;;;;;;;;;;5110993;28;20392;-80
2022/05/23 02:26:45;;;;;;;7.50;2.47;;;;;;;;;;5116260;27;20044;-84
2022/05/23 02:29:14;;;;;;;9.23;2.40;;;;;;;;;;5112615;28;20051;-80
2022/05/23 02:31:43;;;;;;;8.50;2.42;;;;;;;;;;5118641;27;20042;-80
2022/05/23 02:34:12;;;;;;;5.45;2.15;;;;;;;;;;5111230;28;20059;-79
2022/05/23 02:36:38;;;;;;;5.07;2.25;;;;;;;;;;5116263;27;20082;-80
2022/05/23 02:39:07;;;;;;;6.80;2.25;;;;;;;;;;5115807;27;20093;-79
2022/05/23 02:41:34;;;;;;;9.00;2.13;;;;;;;;;;5112785;27;20598;-80
2022/05/23 02:44:00;;;;;;;4.95;2.15;;;;;;;;;;5113735;28;20048;-79
2022/05/23 02:46:45;;;;;;;7.53;2.72;;;;;;;;;;5116667;27;20437;-78
2022/05/23 02:49:21;;;;;;;8.32;2.50;;;;;;;;;;5116878;28;20432;-80
2022/05/23 02:51:48;;;;;;;9.90;2.60;;;;;;;;;;5123618;27;20031;-78
2022/05/23 02:54:14;;;;;;;5.90;2.08;;;;;;;;;;5112048;27;20035;-81
2022/05/23 02:56:40;;;;;;;7.72;2.10;;;;;;;;;;5130996;27;20036;-81
2022/05/23 02:59:08;;;;;;;5.88;1.80;;;;;;;;;;5119063;28;20067;-78
2022/05/23 03:03:01;;;;;;;4.85;1.80;;;;;;;;;;5117798;28;20042;-81
2022/05/23 03:04:20;;;;;;;5.82;1.95;;;;;;;;;;5121274;27;20082;-81
2022/05/23 03:06:46;;;;;;;9.43;2.25;;;;;;;;;;5117689;27;20051;-80
2022/05/23 03:09:21;;;;;;;4.22;1.95;;;;;;;;;;5109982;28;20116;-79
2022/05/23 03:11:48;;;;;;;5.07;1.98;;;;;;;;;;5115266;27;20035;-77
2022/05/23 03:14:14;;;;;;;5.43;2.05;;;;;;;;;;5110816;28;20040;-80
2022/05/23 03:16:40;;;;;;;4.60;1.80;;;;;;;;;;5113849;27;20036;-81
2022/05/23 03:19:07;;;;;;;7.05;2.60;;;;;;;;;;5111160;28;20044;-80
2022/05/23 03:27:10;;;;;;;6.85;2.42;;;;;;;;;;5113391;27;20032;-80
2022/05/23 03:29:45;;;;;;;9.57;2.33;;;;;;;;;;5115518;28;20152;-81
2022/05/23 03:32:13;;;;;;;10.45;2.03;;;;;;;;;;5112658;28;20098;-79
2022/05/23 03:34:42;;;;;;;5.68;2.30;;;;;;;;;;5110689;27;20615;-79
2022/05/23 03:37:09;;;;;;;9.85;2.30;;;;;;;;;;5117976;27;20074;-81
2022/05/23 03:39:37;;;;;;;7.63;2.75;;;;;;;;;;5074594;28;20076;-80
2022/05/23 03:42:04;;;;;;;6.55;2.28;;;;;;;;;;5116405;28;20035;-78
2022/05/23 03:44:30;;;;;;;5.45;2.10;;;;;;;;;;5112331;28;20127;-78
2022/05/23 03:46:56;;;;;;;6.00;2.83;;;;;;;;;;5112626;27;20043;-80
2022/05/23 03:49:23;;;;;;;5.65;2.28;;;;;;;;;;5110046;27;20419;-79
2022/05/23 03:51:49;;;;;;;7.30;3.03;;;;;;;;;;5113602;27;20039;-81
2022/05/23 03:54:15;;;;;;;8.32;2.40;;;;;;;;;;5112753;28;20570;-80
2022/05/23 03:56:41;;;;;;;11.18;3.13;;;;;;;;;;5109001;28;20039;-80
2022/05/23 03:59:07;;;;;;;11.25;2.50;;;;;;;;;;5120161;27;20122;-81
2022/05/23 04:01:33;;;;;;;7.25;2.70;;;;;;;;;;5116124;28;20043;-83
2022/05/23 04:04:00;;;;;;;7.47;2.70;;;;;;;;;;5115659;27;20043;-80
2022/05/23 04:06:27;;;;;;;9.10;2.47;;;;;;;;;;5116028;27;20052;-80
2022/05/23 04:08:56;;;;;;;6.57;2.55;;;;;;;;;;5113818;28;20043;-81
2022/05/23 04:11:22;;;;;;;7.30;3.17;;;;;;;;;;5070882;28;20040;-79
2022/05/23 04:13:51;;;;;;;7.85;2.85;;;;;;;;;;5092390;28;20518;-79
2022/05/23 04:16:18;;;;;;;9.48;3.03;;;;;;;;;;5103109;28;20074;-81
2022/05/23 04:18:44;;;;;;;10.55;2.78;;;;;;;;;;5080321;28;20040;-81
2022/05/23 04:21:10;;;;;;;9.82;3.00;;;;;;;;;;5075728;28;20051;-79
2022/05/23 04:23:36;;;;;;;12.13;3.40;;;;;;;;;;5103253;28;20054;-79
2022/05/23 04:26:07;;;;;;;12.23;3.42;;;;;;;;;;5095674;28;20052;-78
2022/05/23 04:28:33;;;;;;;15.77;3.58;;;;;;;;;;5093386;28;20046;-80
2022/05/23 04:31:00;;;;;;;12.77;2.95;;;;;;;;;;5097844;28;20048;-79
2022/05/23 04:36:23;;;;;;;12.25;3.40;;;;;;;;;;5092593;28;20078;-78
2022/05/23 04:38:49;;;;;;;17.98;3.40;;;;;;;;;;5079809;28;20043;-82
2022/05/23 04:41:15;;;;;;;16.02;3.60;;;;;;;;;;5077597;28;20040;-80
2022/05/23 04:43:42;;;;;;;14.70;3.67;;;;;;;;;;5116264;28;20088;-79
2022/05/23 04:46:08;;;;;;;17.83;4.32;;;;;;;;;;5115696;27;20047;-79
2022/05/23 04:51:19;;;;;;;12.25;3.38;;;;;;;;;;5114653;28;20098;-79
2022/05/23 04:53:45;;;;;;;9.80;3.95;;;;;;;;;;5113020;28;20075;-80
2022/05/23 04:56:14;;;;;;;11.32;3.72;;;;;;;;;;5113276;28;20040;-82
2022/05/23 04:58:40;;;;;;;8.23;3.78;;;;;;;;;;5118170;27;20043;-82
2022/05/23 05:01:06;;;;;;;9.30;3.85;;;;;;;;;;5118024;28;20107;-82
2022/05/23 05:03:32;;;;;;;9.02;4.15;;;;;;;;;;5108121;28;20338;-79
2022/05/23 05:05:58;;;;;;;7.05;3.60;;;;;;;;;;5107855;28;20063;-79
2022/05/23 05:08:24;;;;;;;9.63;4.22;;;;;;;;;;5113897;27;20054;-80
2022/05/23 05:10:51;;;;;;;7.97;3.53;;;;;;;;;;5117186;28;20051;-79
2022/05/23 05:13:17;;;;;;;8.10;4.13;;;;;;;;;;5117087;27;20043;-78
2022/05/23 05:15:43;;;;;;;9.43;3.67;;;;;;;;;;5113326;28;20109;-79
2022/05/23 05:18:09;;;;;;;11.20;3.75;;;;;;;;;;5116339;28;20043;-79
2022/05/23 05:20:35;;;;;;;8.88;3.85;;;;;;;;;;5110239;28;20039;-80
2022/05/23 05:23:10;;;;;;;8.85;3.78;;;;;;;;;;5112668;28;20036;-80
2022/05/23 05:25:41;;;;;;;7.93;4.25;;;;;;;;;;5113649;28;20036;-81
2022/05/23 05:28:07;;;;;;;12.88;4.50;;;;;;;;;;5112948;28;20054;-84
2022/05/23 05:30:45;;;;;;;10.65;4.22;;;;;;;;;;5093143;28;20037;-80
2022/05/23 05:33:16;;;;;;;12.00;4.50;;;;;;;;;;5113868;28;20040;-81
2022/05/23 05:35:55;;;;;;;9.20;4.20;;;;;;;;;;5115074;28;20109;-78
2022/05/23 05:38:44;;;;;;;15.60;4.78;;;;;;;;;;5118979;27;20088;-82
2022/05/23 05:41:22;;;;;;;8.23;4.13;;;;;;;;;;5105111;27;20522;-80
2022/05/23 05:43:55;;;;;;;9.65;4.55;;;;;;;;;;5120270;27;20047;-82
2022/05/23 05:46:24;;;;;;;9.98;4.97;;;;;;;;;;5120650;27;20043;-84
2022/05/23 05:48:52;;;;;;;7.97;4.97;;;;;;;;;;5122572;27;20042;-80
2022/05/23 05:51:30;;;;;;;12.32;5.25;;;;;;;;;;5108083;28;20040;-80
2022/05/23 05:54:04;;;;;;;9.43;5.03;;;;;;;;;;5103368;28;20499;-81
2022/05/23 05:56:40;;;;;;;13.05;5.15;;;;;;;;;;5121688;27;20040;-81
2022/05/23 05:59:16;;;;;;;11.82;4.57;;;;;;;;;;5121165;28;20055;-81
2022/05/23 06:01:42;;;;;;;9.45;4.82;;;;;;;;;;5103105;28;20032;-79
2022/05/23 06:04:08;;;;;;;11.13;4.95;;;;;;;;;;5089411;28;20040;-79
2022/05/23 06:12:09;;;;;;;13.60;4.50;;;;;;;;;;5110944;27;20122;-79
2022/05/23 06:14:35;;;;;;;11.70;5.05;;;;;;;;;;5110704;27;20039;-79
2022/05/23 06:17:01;;;;;;;9.00;4.72;;;;;;;;;;5111456;27;20086;-78
2022/05/23 06:19:27;;;;;;;9.93;4.75;;;;;;;;;;5109523;28;20048;-77
2022/05/23 06:21:53;;;;;;;7.75;4.90;;;;;;;;;;5110378;27;20121;-80
2022/05/23 06:24:19;;;;;;;9.82;5.50;;;;;;;;;;5120709;27;20538;-80
2022/05/23 06:26:46;;;;;;;10.57;5.75;;;;;;;;;;5136543;27;20562;-80
2022/05/23 06:29:12;;;;;;;10.18;5.47;;;;;;;;;;5115455;27;20035;-80
2022/05/23 06:31:38;;;;;;;8.98;5.57;;;;;;;;;;5112707;28;20549;-80
2022/05/23 06:34:04;;;;;;;8.93;5.70;;;;;;;;;;5113988;28;20569;-80
2022/05/23 06:36:30;;;;;;;13.48;5.97;;;;;;;;;;5116715;28;20399;-80
2022/05/23 06:38:58;;;;;;;9.63;6.10;;;;;;;;;;5115604;28;20044;-80
2022/05/23 06:41:24;;;;;;;8.25;5.18;;;;;;;;;;5114793;28;20046;-81
2022/05/23 06:43:50;;;;;;;9.63;5.82;;;;;;;;;;5117572;28;20047;-81
2022/05/23 06:46:16;;;;;;;11.60;5.60;;;;;;;;;;5117146;28;20044;-81
2022/05/23 06:48:42;;;;;;;15.40;6.03;;;;;;;;;;5113555;28;20032;-81
2022/05/23 06:51:09;;;;;;;12.73;6.18;;;;;;;;;;5115639;28;20035;-79
2022/05/23 06:53:35;;;;;;;7.10;5.60;;;;;;;;;;5115649;28;20047;-79
2022/05/23 06:56:02;;;;;;;10.55;5.50;;;;;;;;;;5113857;28;20043;-81
2022/05/23 06:58:29;;;;;;;9.80;5.72;;;;;;;;;;5116683;28;20058;-80
2022/05/23 07:00:55;;;;;;;16.48;7.38;;;;;;;;;;5115825;28;20043;-81
2022/05/23 07:03:22;;;;;;;16.15;6.63;;;;;;;;;;5114298;28;20082;-80
2022/05/23 07:14:03;;;;;;;8.98;5.65;;;;;;;;;;5113414;27;20078;-80
2022/05/23 07:16:31;;;;;;;14.50;6.28;;;;;;;;;;5121349;28;20046;-78
2022/05/23 07:18:57;;;;;;;13.05;5.82;;;;;;;;;;5113768;27;20039;-78
2022/05/23 07:21:26;;;;;;;11.30;5.60;;;;;;;;;;5115547;27;20035;-78
2022/05/23 07:23:52;;;;;;;17.33;5.82;;;;;;;;;;5114506;27;20065;-76
2022/05/23 07:26:19;;;;;;;9.82;5.45;;;;;;;;;;5116758;28;20043;-78
2022/05/23 07:28:46;;;;;;;11.10;5.75;;;;;;;;;;5096957;28;20119;-79
2022/05/23 07:31:12;;;;;;;13.30;6.28;;;;;;;;;;5117693;28;20050;-79
2022/05/23 07:33:39;;;;;;;10.75;5.75;;;;;;;;;;5098621;28;20032;-77
2022/05/23 07:36:06;;;;;;;9.55;5.68;;;;;;;;;;5113874;28;20464;-79
2022/05/23 07:38:32;;;;;;;10.30;5.97;;;;;;;;;;5115280;28;20059;-79
2022/05/23 07:40:59;;;;;;;14.40;6.10;;;;;;;;;;5117328;28;20080;-79
2022/05/23 07:43:25;;;;;;;9.25;5.43;;;;;;;;;;5113606;28;20517;-77
2022/05/23 07:45:52;;;;;;;11.30;6.18;;;;;;;;;;5113236;28;20058;-80
2022/05/23 07:48:19;;;;;;;9.68;6.03;;;;;;;;;;5116540;28;20071;-77
2022/05/23 07:50:45;;;;;;;13.73;6.32;;;;;;;;;;5112978;28;20039;-77
2022/05/23 08:01:29;;;;;;;13.13;7.00;;;;;;;;;;5117143;28;20333;-79
2022/05/23 08:03:55;;;;;;;12.00;7.53;;;;;;;;;;5115370;28;20074;-79
2022/05/23 08:06:21;;;;;;;9.85;6.95;;;;;;;;;;5114570;28;20348;-79
2022/05/23 08:08:48;;;;;;;15.43;7.35;;;;;;;;;;5114845;28;20055;-81
2022/05/23 08:11:14;;;;;;;10.60;7.07;;;;;;;;;;5093940;28;20070;-80
2022/05/23 08:13:42;;;;;;;11.90;6.72;;;;;;;;;;5114615;28;20043;-78
2022/05/23 08:16:08;;;;;;;10.85;6.47;;;;;;;;;;5115966;28;20058;-78
2022/05/23 08:18:35;;;;;;;13.82;7.15;;;;;;;;;;5113753;28;20043;-78
2022/05/23 08:21:01;;;;;;;10.70;6.63;;;;;;;;;;5113738;28;20043;-79
2022/05/23 08:23:29;;;;;;;12.15;6.53;;;;;;;;;;5112932;28;20066;-77
2022/05/23 08:25:56;;;;;;;12.45;6.40;;;;;;;;;;5113735;27;20040;-79
2022/05/23 08:28:22;;;;;;;9.52;6.78;;;;;;;;;;5115780;28;20035;-79
2022/05/23 08:30:48;;;;;;;11.65;6.90;;;;;;;;;;5113033;28;20051;-80
2022/05/23 08:33:14;;;;;;;9.57;6.45;;;;;;;;;;5112387;28;20946;-80
2022/05/23 08:35:41;;;;;;;14.90;6.90;;;;;;;;;;5114817;28;20098;-81
2022/05/23 08:38:07;;;;;;;10.13;6.50;;;;;;;;;;5114974;28;20071;-80
2022/05/23 08:40:42;;;;;;;11.23;7.00;;;;;;;;;;5116409;28;20047;-79
2022/05/23 08:43:10;;;;;;;10.10;6.70;;;;;;;;;;5123509;27;20399;-79
2022/05/23 08:45:40;;;;;;;10.65;6.32;;;;;;;;;;5121339;28;20051;-81
2022/05/23 08:48:06;;;;;;;10.45;6.57;;;;;;;;;;5105831;28;20369;-79
2022/05/23 08:50:48;;;;;;;11.88;7.30;;;;;;;;;;5123873;28;20067;-82
2022/05/23 08:53:17;;;;;;;10.20;6.80;;;;;;;;;;5127087;28;20043;-78
2022/05/23 08:55:47;;;;;;;9.15;7.20;;;;;;;;;;5125475;28;20099;-82
2022/05/23 08:58:26;;;;;;;10.35;6.85;;;;;;;;;;5123024;28;20066;-78
2022/05/23 09:00:57;;;;;;;9.93;6.72;;;;;;;;;;5116041;28;20367;-78
2022/05/23 09:03:35;;;;;;;10.25;7.22;;;;;;;;;;5119016;28;20050;-78
2022/05/23 09:06:11;;;;;;;10.82;6.93;;;;;;;;;;5118672;28;20043;-79
2022/05/23 09:08:41;;;;;;;8.60;6.85;;;;;;;;;;5115640;28;20090;-80
2022/05/23 09:11:30;;;;;;;11.32;7.38;;;;;;;;;;5113473;28;20055;-81
2022/05/23 09:13:59;;;;;;;13.63;7.53;;;;;;;;;;5112572;28;20044;-79
2022/05/23 09:16:31;;;;;;;13.10;7.22;;;;;;;;;;5095744;28;20075;-77
2022/05/23 09:19:15;;;;;;;11.07;6.97;;;;;;;;;;5115005;28;20036;-76
2022/05/23 09:24:39;;;;;;;13.18;7.30;;;;;;;;;;5115436;28;20044;-79
2022/05/23 09:27:13;;;;;;;8.68;6.47;;;;;;;;;;5094122;28;20047;-78
2022/05/23 09:29:39;;;;;;;8.77;7.18;;;;;;;;;;5109970;28;20043;-82
2022/05/23 09:32:10;;;;;;;8.93;6.32;;;;;;;;;;5109719;28;20036;-78
2022/05/23 09:34:48;;;;;;;8.43;6.40;;;;;;;;;;5110090;28;20513;-79
2022/05/23 09:37:22;;;;;;;12.00;7.13;;;;;;;;;;5108731;28;20053;-79
2022/05/23 09:39:56;;;;;;;11.10;7.18;;;;;;;;;;5109509;28;20490;-81
2022/05/23 09:48:19;;;;;;;10.38;7.05;;;;;;;;;;5110181;28;20055;-79
2022/05/23 09:50:46;;;;;;;9.55;6.78;;;;;;;;;;5110229;28;20043;-80
2022/05/23 09:53:17;;;;;;;12.25;7.57;;;;;;;;;;5110037;28;20039;-80
2022/05/23 09:55:43;;;;;;;10.57;7.32;;;;;;;;;;5111053;28;20039;-80
2022/05/23 09:58:12;;;;;;;8.02;7.00;;;;;;;;;;5113264;28;20043;-80
2022/05/23 10:00:40;;;;;;;11.00;6.95;;;;;;;;;;5112806;28;20032;-80
2022/05/23 10:03:27;;;;;;;11.20;7.10;;;;;;;;;;5110498;28;20161;-81
2022/05/23 10:06:04;;;;;;;9.13;6.80;;;;;;;;;;5092636;28;20079;-80
2022/05/23 10:08:33;;;;;;;13.98;6.93;;;;;;;;;;5110204;28;20067;-80
2022/05/23 10:11:00;;;;;;;9.85;6.20;;;;;;;;;;5110983;28;20036;-79
2022/05/23 10:13:30;;;;;;;10.57;6.72;;;;;;;;;;5111810;28;20055;-80
2022/05/23 10:15:58;;;;;;;12.15;7.03;;;;;;;;;;5113959;28;20047;-80
2022/05/23 10:18:35;;;;;;;10.25;6.78;;;;;;;;;;5111636;28;20114;-79
2022/05/23 10:21:02;;;;;;;10.30;7.45;;;;;;;;;;5092838;28;20039;-80
2022/05/23 10:23:33;;;;;;;11.70;7.10;;;;;;;;;;5112700;28;20495;-79
2022/05/23 10:26:30;;;;;;;9.43;6.50;;;;;;;;;;5095673;28;20134;-78
2022/05/23 10:28:56;;;;;;;13.52;5.75;;;;;;;;;;5114138;28;20075;-80
2022/05/23 10:31:26;;;;;;;8.13;5.63;;;;;;;;;;5114177;28;20048;-80
2022/05/23 10:34:16;;;;;;;8.48;6.20;;;;;;;;;;5096230;28;20043;-78
2022/05/23 10:36:44;;;;;;;10.52;6.03;;;;;;;;;;5064298;28;20044;-79
2022/05/23 10:42:10;;;;;;;8.73;5.53;;;;;;;;;;5092970;28;20036;-78
2022/05/23 10:44:47;;;;;;;10.68;5.63;;;;;;;;;;5074596;28;20044;-77
2022/05/23 10:47:19;;;;;;;11.95;5.88;;;;;;;;;;5102664;28;20517;-78
2022/05/23 10:49:53;;;;;;;8.63;5.57;;;;;;;;;;5111932;28;20474;-79
2022/05/23 10:52:25;;;;;;;10.48;5.70;;;;;;;;;;5111400;28;20044;-79
2022/05/23 10:54:54;;;;;;;10.70;5.75;;;;;;;;;;5113218;28;20470;-79
2022/05/23 10:57:33;;;;;;;14.52;5.40;;;;;;;;;;5111971;28;20040;-80
2022/05/23 11:00:08;;;;;;;8.55;4.50;;;;;;;;;;5111697;28;20039;-79
2022/05/23 11:02:52;;;;;;;13.90;6.00;;;;;;;;;;5113186;28;20086;-81
2022/05/23 11:05:28;;;;;;;10.63;5.90;;;;;;;;;;5112225;28;20130;-82
2022/05/23 11:08:13;;;;;;;9.77;6.88;;;;;;;;;;5110258;27;20051;-78
2022/05/23 11:10:52;;;;;;;8.32;4.80;;;;;;;;;;5112138;28;20055;-79
2022/05/23 11:13:37;;;;;;;8.88;4.53;;;;;;;;;;5111748;28;20080;-78
2022/05/23 11:16:03;;;;;;;9.27;4.72;;;;;;;;;;5113680;28;20499;-79
2022/05/23 11:18:37;;;;;;;9.30;4.93;;;;;;;;;;5113633;28;20042;-80
2022/05/23 11:21:08;;;;;;;14.70;4.65;;;;;;;;;;5114157;28;20089;-78
2022/05/23 11:23:41;;;;;;;10.40;4.20;;;;;;;;;;5114524;28;20032;-80
2022/05/23 11:26:10;;;;;;;11.68;3.80;;;;;;;;;;5112476;28;20069;-78
2022/05/23 11:34:30;;;;;;;8.90;4.15;;;;;;;;;;5112076;27;20039;-79
2022/05/23 11:37:08;;;;;;;9.65;2.92;;;;;;;;;;5115209;28;20054;-81
2022/05/23 11:39:45;;;;;;;6.43;3.42;;;;;;;;;;5117688;28;20052;-82
2022/05/23 11:42:29;;;;;;;12.18;3.20;;;;;;;;;;5098692;28;20048;-79
2022/05/23 11:44:58;;;;;;;9.82;3.15;;;;;;;;;;5096982;28;20062;-81
2022/05/23 11:47:26;;;;;;;9.75;3.38;;;;;;;;;;5098048;28;20039;-79
2022/05/23 11:50:01;;;;;;;4.55;2.60;;;;;;;;;;5097919;28;20056;-78
2022/05/23 11:52:32;;;;;;;4.53;2.70;;;;;;;;;;5102416;28;20412;-81
2022/05/23 11:55:02;;;;;;;4.35;2.53;;;;;;;;;;5104796;28;20044;-82
2022/05/23 11:57:36;;;;;;;9.52;3.72;;;;;;;;;;5100468;28;20078;-81
2022/05/23 12:00:08;;;;;;;11.02;2.90;;;;;;;;;;5097899;28;20068;-82
2022/05/23 12:02:38;;;;;;;6.57;2.90;;;;;;;;;;5112121;27;20475;-81
2022/05/23 12:05:09;;;;;;;10.02;2.88;;;;;;;;;;5114872;28;20039;-82
2022/05/23 12:07:39;;;;;;;7.63;2.95;;;;;;;;;;5114033;28;20051;-80
2022/05/23 12:10:18;;;;;;;8.63;3.03;;;;;;;;;;5110762;27;20050;-81
2022/05/23 12:13:08;;;;;;;6.30;2.63;;;;;;;;;;5091506;28;20057;-81
2022/05/23 12:15:43;;;;;;;7.95;2.83;;;;;;;;;;5092928;28;20474;-80
2022/05/23 12:18:19;;;;;;;7.25;2.90;;;;;;;;;;5109376;27;20043;-78
2022/05/23 12:20:47;;;;;;;8.57;3.20;;;;;;;;;;5106301;28;20590;-77
2022/05/23 12:23:17;;;;;;;5.70;3.20;;;;;;;;;;5104863;28;20090;-81
2022/05/23 12:26:02;;;;;;;10.40;3.55;;;;;;;;;;5102099;27;20071;-84
2022/05/23 12:28:28;;;;;;;5.55;2.58;;;;;;;;;;5091078;28;20075;-83
2022/05/23 12:31:10;;;;;;;10.15;3.38;;;;;;;;;;5104507;27;20040;-79
2022/05/23 12:33:38;;;;;;;12.48;2.95;;;;;;;;;;5105072;27;20046;-77
2022/05/23 12:36:11;;;;;;;8.23;2.88;;;;;;;;;;5104866;27;20075;-84
2022/05/23 12:38:44;;;;;;;5.75;3.22;;;;;;;;;;5102936;27;20044;-78
2022/05/23 12:41:16;;;;;;;7.80;3.30;;;;;;;;;;5103836;27;20098;-78
2022/05/23 12:43:51;;;;;;;6.93;3.42;;;;;;;;;;5102300;27;20078;-78
2022/05/23 12:46:26;;;;;;;4.78;2.97;;;;;;;;;;5105313;28;20097;-78
2022/05/23 12:48:58;;;;;;;11.90;3.30;;;;;;;;;;5109947;27;20394;-79
2022/05/23 12:51:40;;;;;;;9.85;3.08;;;;;;;;;;5113275;28;20040;-78
2022/05/23 12:54:24;;;;;;;15.30;2.67;;;;;;;;;;5063650;28;20047;-78
2022/05/23 12:57:02;;;;;;;12.25;2.92;;;;;;;;;;5106166;28;20036;-79
2022/05/23 12:59:40;;;;;;;7.78;3.33;;;;;;;;;;5102990;28;20067;-81
2022/05/23 13:02:12;;;;;;;11.35;2.80;;;;;;;;;;5105352;28;20090;-82
2022/05/23 13:04:49;;;;;;;8.93;2.45;;;27.80;99.90;;;;;;5089534;28;20032;-80
2022/05/23 13:07:22;;;;;;;7.55;2.25;;;;;;;;;;5108988;27;20065;-80
2022/05/23 13:09:55;;;;;;;7.85;2.40;;;;;;;;;;5106761;28;20117;-80
2022/05/23 13:12:27;;;;;;;8.70;2.38;;;;;;;;;;5109814;28;20044;-80
2022/05/23 13:14:53;;;;;;;10.27;2.42;;;;;;;;;;5104230;28;20375;-79
2022/05/23 13:17:31;;;;;;;5.90;2.50;;;;;;;;;;5106559;28;20466;-81
2022/05/23 13:22:41;;;;;;;8.40;2.35;;;;;;;;;;5103848;28;20073;-81
2022/05/23 13:25:08;;;;;;;6.22;2.50;;;;;;;;;;5104315;28;20050;-79
2022/05/23 13:27:37;;;;;;;11.63;2.60;;;;;;;;;;5108595;28;20089;-83
2022/05/23 13:30:06;;;;;;;8.35;2.67;;;;;;;;;;5103015;28;20069;-81
2022/05/23 13:32:32;;;;;;;4.88;2.50;;;;;;;;;;5102738;28;20430;-81
2022/05/23 13:34:59;;;;;;;5.20;2.58;;;;;;;;;;5104495;28;20042;-82
2022/05/23 13:37:26;;;;;;;16.27;3.20;;;;;;;;;;5087312;28;20103;-83
2022/05/23 13:39:52;;;;;;;6.88;2.33;;;;;;;;;;5104257;28;20764;-81
2022/05/23 13:42:23;;;;;;;6.95;3.28;;;;;;;;;;5104801;28;20082;-80
2022/05/23 13:44:49;;;;;;;11.18;3.45;;;;;;;;;;5104166;28;20051;-83
2022/05/23 13:47:20;;;;;;;6.18;2.92;;;;;;;;;;5102269;28;20043;-83
2022/05/23 13:49:48;;;;;;;9.50;3.05;;;;;;;;;;5106366;28;20509;-80
2022/05/23 13:52:17;;;;;;;5.05;2.78;;;;;;;;;;5105854;28;20058;-84
2022/05/23 13:54:50;;;;;;;7.50;2.88;;;;;;;;;;5105113;28;20060;-82
2022/05/23 13:57:22;;;;;;;5.25;2.40;;;;;;;;;;5105505;27;20101;-82
2022/05/23 13:59:51;;;;;;;7.05;2.60;;;;;;;;;;5109322;28;20040;-81
2022/05/23 14:02:21;;;;;;;8.20;3.28;;;;;;;;;;5107589;27;20126;-81
2022/05/23 14:04:48;;;;;;;6.90;2.92;;;;;;;;;;5107647;28;20900;-79
2022/05/23 14:07:16;;;;;;;7.10;2.88;;;;;;;;;;5127167;27;20035;-80
2022/05/23 14:09:44;;;;;;;7.40;3.00;;;;;;;;;;5104914;27;20043;-84
2022/05/23 14:12:14;;;;;;;8.05;2.70;;;;;;;;;;5108476;28;20040;-85
2022/05/23 14:14:43;;;;;;;9.52;2.85;;;;;;;;;;5109947;27;20146;-80
2022/05/23 14:17:21;;;;;;;8.15;2.80;;;;;;;;;;5111904;27;20089;-80
2022/05/23 14:19:55;;;;;;;11.80;2.97;;;;;;;;;;5104530;27;20040;-81
2022/05/23 14:22:23;;;;;;;8.20;3.13;;;;;;;;;;5094465;28;20044;-81
2022/05/23 14:24:51;;;;;;;5.32;3.33;;;;;;;;;;5100103;28;20040;-82
2022/05/23 14:27:30;;;;;;;9.98;3.20;;;;;;;;;;5109319;27;20092;-83
2022/05/23 14:30:12;;;;;;;8.57;3.88;;;;;;;;;;5110148;27;20036;-80
2022/05/23 14:32:38;;;;;;;11.13;3.15;;;;;;;;;;5105424;27;20043;-84
2022/05/23 14:35:12;;;;;;;6.47;3.30;;;;;;;;;;5111094;27;20043;-81
2022/05/23 14:37:40;;;;;;;11.02;3.38;;;;;;;;;;5110884;27;20046;-81
2022/05/23 14:40:06;;;;;;;9.13;3.60;;;;;;;;;;5111048;27;20453;-78
2022/05/23 14:42:37;;;;;;;8.27;3.28;;;;;;;;;;5110666;27;20050;-80
2022/05/23 14:45:05;;;;;;;6.30;3.03;;;;;;;;;;5108230;27;20081;-80
2022/05/23 14:47:32;;;;;;;6.47;3.35;;;;;;;;;;5110646;27;20181;-82
2022/05/23 14:50:24;;;;;;;9.73;3.78;;;;;;;;;;5111354;27;20039;-81
2022/05/23 14:55:44;;;;;;;6.35;3.65;;;;;;;;;;5107332;28;20054;-79
2022/05/23 15:01:01;;;;;;;9.50;4.40;;;;;;;;;;5110460;28;20419;-79
2022/05/23 15:03:48;;;;;;;9.98;4.30;;;;;;;;;;5093593;28;20046;-78
2022/05/23 15:06:15;;;;;;;7.70;4.15;;;;;;;;;;5113662;27;20036;-79
2022/05/23 15:08:42;;;;;;;6.00;4.10;;;;;;;;;;5110958;28;20066;-79
2022/05/23 15:11:11;;;;;;;6.88;3.90;;;;;;;;;;5108227;27;20040;-83
2022/05/23 15:13:38;;;;;;;14.88;4.28;;;;;;;;;;5113096;27;20105;-81
2022/05/23 15:16:05;;;;;;;13.05;4.20;;;;;;;;;;5109765;27;20172;-80
2022/05/23 15:18:33;;;;;;;8.60;3.83;;;;;;;;;;5110291;28;20055;-82
2022/05/23 15:20:59;;;;;;;9.65;3.88;;;;;;;;;;5116073;27;20028;-83
2022/05/23 15:23:26;;;;;;;7.35;4.00;;;;;;;;;;5115375;27;20137;-81
2022/05/23 15:26:03;;;;;;;12.45;4.25;;;;;;;;;;5108608;27;20048;-83
2022/05/23 15:28:29;;;;;;;7.68;3.67;;;;;;;;;;5118151;27;20027;-83
2022/05/23 15:30:55;;;;;;;8.50;3.55;;;;;;;;;;5116449;27;20035;-82
2022/05/23 15:33:22;;;;;;;5.72;3.40;;;;;;;;;;5117134;27;20042;-85
2022/05/23 15:35:48;;;;;;;7.43;3.20;;;;;;;;;;5111873;28;20053;-84
2022/05/23 15:38:14;;;;;;;8.90;3.80;;;;;;;;;;5106301;28;20079;-80
2022/05/23 15:40:41;;;;;;;6.82;3.50;;;;;;;;;;5106097;28;20121;-84
2022/05/23 15:43:10;;;;;;;10.10;4.10;;;;;;;;;;5111141;28;20073;-83
2022/05/23 15:45:36;;;;;;;6.85;3.65;;;;;;;;;;5112963;27;20043;-81
2022/05/23 15:48:07;;;;;;;6.53;3.42;;;;;;;;;;5109748;27;20050;-83
2022/05/23 15:50:33;;;;;;;5.68;3.72;;;;;;;;;;5110012;28;20126;-83
2022/05/23 15:52:59;;;;;;;6.25;3.53;;;;;;;;;;5114020;27;20051;-84
2022/05/23 15:55:25;;;;;;;9.90;3.70;;;;;;;;;;5119022;28;20050;-85
2022/05/23 15:57:52;;;;;;;8.20;3.42;;;;;;;;;;5116479;28;20035;-85
2022/05/23 16:00:22;;;;;;;8.30;3.60;;;;;;;;;;5118621;27;20039;-83
2022/05/23 16:02:51;;;;;;;7.80;3.92;;;;;;;;;;5120185;27;20043;-83